Terminal Aerodrome Forecast
Issued by NWS

Home | Current Version | Previous Version | Text Only | Print | Product List | Glossary On
Versions: 1 2 3 4 5 6 7 8 9 10 11 12
000
FTUS45 KABQ 310539
TAFFMN
TAF
KFMN 310539Z 3106/0106 07006KT P6SM VCSH BKN120
      TEMPO 3106/3109 VRB09G17KT BKN090
     FM311400 12006KT P6SM BKN080
     FM311930 25009G17KT P6SM SCT090 SCT140
     FM010100 VRB06KT P6SM SCT090 BKN140=

USA.gov is the U.S. government's official web portal to all federal, state and local government web resources and services.